Time;durP1;ratioP1;P1;durP2;ratioP2;P2;SDS_P1;SDS_P2;PMS_P1;PMS_P2;Temp;Humidity;BMP_temperature;BMP_pressure;BME280_temperature;BME280_humidity;BME280_pressure;Samples;Min_cycle;Max_cycle;Signal;HPM_P1;HPM_P2
2023/04/17 00:01:44;;;;;;;46.03;24.80;;;;;;;15.57;58.64;102759.34;5063108;28;20825;-69
2023/04/17 00:04:09;;;;;;;46.27;25.10;;;;;;;15.57;58.07;102754.06;5030682;28;20082;-69
2023/04/17 00:06:36;;;;;;;53.70;23.50;;;;;;;16.69;53.55;102744.09;5047427;28;20094;-69
2023/04/17 00:09:02;;;;;;;50.33;26.10;;;;;;;16.14;56.00;102755.75;5048159;28;20029;-68
2023/04/17 00:11:28;;;;;;;54.07;26.80;;;;;;;16.49;54.59;102752.13;5065449;28;20044;-69
2023/04/17 00:13:53;;;;;;;55.33;26.63;;;;;;;16.11;56.25;102757.53;5068799;28;20383;-68
2023/04/17 00:16:19;;;;;;;56.20;26.47;;;;;;;15.58;57.61;102761.09;5044671;28;20020;-68
2023/04/17 00:18:44;;;;;;;57.27;27.00;;;;;;;16.34;56.06;102753.94;5044566;28;20480;-69
2023/04/17 00:21:09;;;;;;;48.43;25.57;;;;;;;15.56;59.00;102758.44;5028068;28;20462;-69
2023/04/17 00:23:35;;;;;;;57.93;28.17;;;;;;;15.25;59.46;102749.69;5029380;28;20021;-69
2023/04/17 00:26:00;;;;;;;53.13;26.37;;;;;;;16.32;57.19;102755.72;5028140;28;20038;-68
2023/04/17 00:28:26;;;;;;;48.13;25.80;;;;;;;17.32;52.54;102746.34;5061357;28;20505;-69
2023/04/17 00:30:51;;;;;;;55.33;27.43;;;;;;;16.32;54.44;102749.53;5032752;28;20495;-68
2023/04/17 00:33:16;;;;;;;45.07;24.67;;;;;;;17.30;52.30;102742.88;5032277;28;20121;-68
2023/04/17 00:35:42;;;;;;;58.80;28.97;;;;;;;17.60;51.60;102743.50;5028647;28;20029;-68
2023/04/17 00:38:08;;;;;;;51.00;27.20;;;;;;;16.49;54.20;102752.13;5030724;28;20116;-68
2023/04/17 00:40:34;;;;;;;56.97;26.93;;;;;;;15.61;57.45;102750.56;5034637;28;20045;-68
2023/04/17 00:43:00;;;;;;;50.57;25.50;;;;;;;15.70;58.78;102755.81;5056617;28;20115;-68
2023/04/17 00:45:25;;;;;;;54.23;27.20;;;;;;;15.37;59.64;102757.59;5071060;28;20031;-68
2023/04/17 00:47:52;;;;;;;56.93;26.03;;;;;;;16.24;55.47;102753.09;5044020;28;20025;-68
2023/04/17 00:50:17;;;;;;;47.60;24.00;;;;;;;15.61;57.13;102755.81;5051661;28;20060;-69
2023/04/17 00:52:44;;;;;;;50.37;25.33;;;;;;;15.99;57.08;102757.56;5038258;28;20052;-69
2023/04/17 00:55:10;;;;;;;48.63;25.03;;;;;;;16.23;56.31;102750.47;5030968;28;20102;-69
2023/04/17 00:57:35;;;;;;;45.40;22.40;;;;;;;15.73;56.71;102753.19;5054903;28;20444;-69
2023/04/17 01:00:01;;;;;;;47.67;22.37;;;;;;;15.98;56.96;102747.00;5072719;28;20027;-68
2023/04/17 01:02:27;;;;;;;44.37;23.53;;;;;;;16.73;53.90;102741.47;5062327;28;20404;-69
2023/04/17 01:04:52;;;;;;;48.10;23.70;;;;;;;17.19;52.31;102734.16;5046433;28;20150;-68
2023/04/17 01:07:17;;;;;;;43.00;22.83;;;;;;;16.25;54.32;102748.69;5053631;28;20073;-69
2023/04/17 01:09:43;;;;;;;48.33;23.90;;;;;;;16.42;55.11;102749.50;5070553;28;20491;-68
2023/04/17 01:12:19;;;;;;;51.33;24.33;;;;;;;16.53;55.88;102745.97;5070782;28;20110;-68
2023/04/17 01:14:44;;;;;;;48.27;23.90;;;;;;;16.37;54.94;102758.31;5071425;28;20024;-68
2023/04/17 01:17:13;;;;;;;49.40;25.43;;;;;;;16.13;56.31;102760.16;5052257;28;20496;-68
2023/04/17 01:19:39;;;;;;;50.73;24.27;;;;;;;15.62;57.98;102757.59;5051083;28;20048;-69
2023/04/17 01:22:04;;;;;;;52.37;24.47;;;;;;;16.29;56.08;102760.97;5046927;28;20493;-68
2023/04/17 01:24:29;;;;;;;51.70;24.83;;;;;;;16.18;57.21;102762.78;5031881;28;20029;-69
2023/04/17 01:26:55;;;;;;;54.50;23.57;;;;;;;16.32;56.14;102760.09;5040741;28;20043;-68
2023/04/17 01:29:20;;;;;;;54.07;24.00;;;;;;;15.64;60.07;102761.09;5050709;28;20052;-69
2023/04/17 01:31:46;;;;;;;52.80;25.63;;;;;;;15.04;59.83;102759.31;5037010;28;20025;-68
2023/04/17 01:34:11;;;;;;;57.13;26.70;;;;;;;15.75;60.51;102753.16;5034372;28;20160;-69
2023/04/17 01:36:36;;;;;;;57.87;26.03;;;;;;;17.01;54.56;102741.31;5030623;28;20021;-69
2023/04/17 01:39:02;;;;;;;64.23;28.23;;;;;;;16.38;54.75;102758.31;5048393;28;20028;-69
2023/04/17 01:41:28;;;;;;;52.57;24.97;;;;;;;14.98;62.66;102758.41;5056824;28;20029;-69
2023/04/17 01:43:53;;;;;;;60.13;27.00;;;;;;;15.36;60.79;102754.91;5049915;28;20048;-68
2023/04/17 01:46:19;;;;;;;55.53;25.83;;;;;;;16.02;57.46;102757.56;5048383;28;20052;-68
2023/04/17 01:48:44;;;;;;;53.57;25.60;;;;;;;15.82;57.67;102754.09;5049766;28;20110;-68
2023/04/17 01:51:09;;;;;;;37.97;20.80;;;;;;;15.69;57.78;102758.44;5050347;28;20134;-68
2023/04/17 01:53:36;;;;;;;44.87;21.73;;;;;;;16.27;55.54;102746.94;5033266;28;20033;-68
2023/04/17 01:56:02;;;;;;;43.03;21.80;;;;;;;16.59;53.77;102751.19;5039979;28;20056;-68
2023/04/17 01:58:28;;;;;;;43.53;20.77;;;;;;;15.04;57.55;102759.31;5036556;28;20071;-69
2023/04/17 02:00:53;;;;;;;41.37;20.30;;;;;;;15.56;56.80;102758.44;5031799;28;20050;-68
2023/04/17 02:03:19;;;;;;;44.13;21.27;;;;;;;15.52;57.32;102755.81;5031251;28;20021;-68
2023/04/17 02:05:46;;;;;;;45.67;21.10;;;;;;;15.93;57.66;102755.78;5065873;28;20073;-68
2023/04/17 02:08:12;;;;;;;47.17;21.77;;;;;;;15.55;57.95;102755.81;5050927;28;20094;-68
2023/04/17 02:10:37;;;;;;;46.17;22.53;;;;;;;15.83;57.47;102750.56;5049378;28;20401;-68
2023/04/17 02:13:03;;;;;;;46.00;21.33;;;;;;;15.94;57.91;102754.06;5049503;28;20021;-68
2023/04/17 02:15:28;;;;;;;45.60;21.30;;;;;;;16.11;56.02;102747.00;5062312;28;20024;-68
2023/04/17 02:17:54;;;;;;;47.67;22.43;;;;;;;16.22;55.67;102744.28;5031981;28;20393;-68
2023/04/17 02:20:19;;;;;;;48.80;22.60;;;;;;;16.35;54.45;102749.53;5030218;28;20103;-68
2023/04/17 02:22:44;;;;;;;46.10;22.30;;;;;;;16.92;53.56;102741.38;5029905;28;20083;-69
2023/04/17 02:25:10;;;;;;;45.50;21.17;;;;;;;16.81;52.52;102743.16;5048203;28;20022;-69
2023/04/17 02:27:35;;;;;;;46.87;21.27;;;;;;;16.66;54.03;102739.72;5040750;28;20064;-68
2023/04/17 02:30:01;;;;;;;44.50;22.70;;;;;;;17.09;52.22;102743.88;5051319;28;20025;-69
2023/04/17 02:32:27;;;;;;;38.90;20.67;;;;;;;15.98;56.72;102744.34;5048354;28;20029;-68
2023/04/17 02:34:53;;;;;;;38.37;20.17;;;;;;;15.20;59.01;102746.16;5057786;28;20503;-68
2023/04/17 02:37:18;;;;;;;41.50;19.00;;;;;;;15.85;55.96;102744.38;5033460;28;20041;-69
2023/04/17 02:39:44;;;;;;;37.27;18.63;;;;;;;16.53;53.13;102744.19;5029930;28;20029;-68
2023/04/17 02:42:11;;;;;;;33.20;18.07;;;;;;;16.70;53.25;102736.16;5028442;28;20025;-68
2023/04/17 02:44:37;;;;;;;41.93;19.07;;;;;;;16.22;54.30;102746.06;5035193;28;20013;-68
2023/04/17 02:47:02;;;;;;;39.73;20.83;;;;;;;17.02;53.06;102734.25;5058850;28;20082;-68
2023/04/17 02:49:28;;;;;;;38.93;19.37;;;;;;;16.32;53.79;102734.59;5069536;28;20392;-68
2023/04/17 02:51:53;;;;;;;49.80;22.17;;;;;;;15.68;56.82;102751.44;5069139;28;20047;-69
2023/04/17 02:54:18;;;;;;;42.37;20.53;;;;;;;15.39;58.67;102753.19;5068122;28;20499;-69
2023/04/17 02:56:44;;;;;;;41.97;20.07;;;;;;;15.91;57.59;102749.66;5057325;28;20040;-68
2023/04/17 02:59:09;;;;;;;37.47;19.27;;;;;;;16.61;54.88;102742.38;5037408;28;20030;-68
2023/04/17 03:01:37;;;;;;;37.93;19.20;;;;;;;16.39;55.10;102731.06;5033199;28;20374;-69
2023/04/17 03:04:02;;;;;;;42.27;19.43;;;;;;;15.47;56.93;102749.66;5029007;28;20401;-68
2023/04/17 03:06:29;;;;;;;39.27;19.90;;;;;;;16.09;56.17;102754.00;5028954;28;20029;-69
2023/04/17 03:08:54;;;;;;;39.87;18.77;;;;;;;16.07;54.68;102750.53;5028610;28;20024;-68
2023/04/17 03:11:20;;;;;;;34.23;15.23;;;;;;;14.65;60.25;102754.81;5031621;28;20026;-68
2023/04/17 03:13:45;;;;;;;41.50;18.80;;;;;;;16.46;56.18;102745.09;5048148;28;20453;-68
2023/04/17 03:16:11;;;;;;;41.37;19.80;;;;;;;15.15;61.38;102740.00;5048428;28;20025;-68
2023/04/17 03:18:39;;;;;;;39.37;19.20;;;;;;;15.81;57.44;102752.31;5050192;28;20029;-69
2023/04/17 03:21:05;;;;;;;41.63;18.57;;;;;;;16.99;53.88;102742.19;5048254;28;20024;-68
2023/04/17 03:23:31;;;;;;;37.53;18.67;;;;;;;16.16;54.56;102743.47;5049489;28;20560;-68
2023/04/17 03:25:56;;;;;;;46.80;20.23;;;;;;;16.88;53.43;102735.19;5042635;28;20033;-68
2023/04/17 03:28:22;;;;;;;43.50;19.33;;;;;;;17.07;52.22;102730.69;5028630;28;20095;-68
2023/04/17 03:30:48;;;;;;;41.53;20.53;;;;;;;16.96;52.52;102743.09;5029177;28;20107;-68
2023/04/17 03:33:15;;;;;;;36.73;18.37;;;;;;;16.78;53.10;102737.00;5028068;28;20425;-68
2023/04/17 03:35:41;;;;;;;39.63;18.67;;;;;;;15.89;57.21;102747.91;5040708;28;20518;-68
2023/04/17 03:38:07;;;;;;;33.23;17.30;;;;;;;16.47;54.12;102748.59;5028862;28;20071;-68
2023/04/17 03:40:32;;;;;;;38.03;18.70;;;;;;;16.23;54.72;102747.81;5045693;28;20037;-69
2023/04/17 03:42:58;;;;;;;39.03;18.63;;;;;;;16.36;55.36;102752.19;5046621;28;20039;-69
2023/04/17 03:45:23;;;;;;;37.90;18.27;;;;;;;16.06;54.90;102754.03;5051149;28;20032;-69
2023/04/17 03:47:48;;;;;;;37.27;17.83;;;;;;;16.01;56.89;102745.25;5048547;28;20029;-68
2023/04/17 03:50:14;;;;;;;31.63;18.17;;;;;;;15.54;58.46;102748.81;5067844;28;20119;-69
2023/04/17 03:52:39;;;;;;;31.80;15.47;;;;;;;14.74;59.02;102744.28;5036530;28;20158;-68
2023/04/17 03:55:06;;;;;;;35.47;17.87;;;;;;;15.00;60.34;102747.00;5027889;28;20026;-70
2023/04/17 03:57:31;;;;;;;32.47;16.97;;;;;;;15.18;58.96;102745.25;5027544;28;20448;-68
2023/04/17 03:59:57;;;;;;;34.10;17.13;;;;;;;15.84;57.58;102745.28;5027845;28;20033;-68
2023/04/17 04:02:22;;;;;;;30.93;16.57;;;;;;;15.51;56.80;102748.78;5065233;28;20530;-69
2023/04/17 04:04:49;;;;;;;30.53;16.70;;;;;;;16.03;56.29;102745.22;5068955;28;20036;-68
2023/04/17 04:07:14;;;;;;;36.00;16.87;;;;;;;16.29;55.37;102745.16;5052618;28;20052;-68
2023/04/17 04:09:40;;;;;;;31.57;16.83;;;;;;;16.34;55.92;102746.03;5049461;28;20056;-69
2023/04/17 04:12:05;;;;;;;32.90;16.87;;;;;;;16.39;54.58;102740.72;5037098;28;20140;-69
2023/04/17 04:14:30;;;;;;;36.57;18.40;;;;;;;16.16;55.12;102748.75;5027748;28;20033;-69
2023/04/17 04:16:56;;;;;;;37.50;18.03;;;;;;;16.48;53.45;102750.38;5056574;28;20123;-68
2023/04/17 04:19:21;;;;;;;36.67;17.20;;;;;;;16.48;53.39;102745.09;5066720;28;20028;-69
2023/04/17 04:21:47;;;;;;;36.83;17.47;;;;;;;15.70;55.77;102758.47;5068031;28;20120;-68
2023/04/17 04:24:13;;;;;;;32.67;17.17;;;;;;;15.67;56.70;102747.03;5068764;28;20028;-68
2023/04/17 04:26:42;;;;;;;34.63;17.67;;;;;;;15.98;55.51;102747.91;5060390;28;20020;-68
2023/04/17 04:29:10;;;;;;;38.37;18.27;;;;;;;16.45;54.64;102741.56;5027855;28;20022;-69
2023/04/17 04:31:36;;;;;;;36.10;17.90;;;;;;;16.32;54.17;102753.09;5029729;28;20033;-69
2023/04/17 04:34:02;;;;;;;35.80;18.83;;;;;;;16.49;54.29;102746.84;5027206;28;20036;-68
2023/04/17 04:36:28;;;;;;;36.80;18.13;;;;;;;15.71;58.70;102754.91;5048253;28;20041;-68
2023/04/17 04:38:58;;;;;;;41.50;20.03;;;;;;;16.07;56.32;102752.25;5048687;28;20037;-68
2023/04/17 04:41:25;;;;;;;36.53;18.70;;;;;;;16.17;54.45;102755.75;5045847;28;20329;-69
2023/04/17 04:43:51;;;;;;;34.70;17.87;;;;;;;16.19;54.82;102764.56;5049222;28;20025;-68
2023/04/17 04:46:17;;;;;;;40.60;19.77;;;;;;;17.31;51.05;102760.47;5029118;28;20026;-68
2023/04/17 04:48:42;;;;;;;36.00;18.00;;;;;;;16.19;53.37;102772.47;5045121;28;20087;-68
2023/04/17 04:51:08;;;;;;;38.63;18.83;;;;;;;16.65;51.66;102768.75;5067210;28;20044;-69
2023/04/17 04:53:33;;;;;;;37.00;19.60;;;;;;;17.43;50.94;102776.25;5067786;28;20028;-69
2023/04/17 04:55:58;;;;;;;42.30;19.50;;;;;;;17.00;51.25;102771.25;5049583;28;20051;-68
2023/04/17 04:58:24;;;;;;;37.90;19.80;;;;;;;17.32;50.00;102767.50;5060058;28;20078;-68
2023/04/17 05:00:49;;;;;;;41.37;20.83;;;;;;;16.58;52.27;102778.47;5046932;28;20021;-68
2023/04/17 05:03:15;;;;;;;37.77;19.90;;;;;;;17.09;51.46;102771.19;5047249;28;20043;-68
2023/04/17 05:05:42;;;;;;;43.33;20.17;;;;;;;16.38;53.24;102775.94;5047697;28;20075;-68
2023/04/17 05:08:07;;;;;;;41.13;19.53;;;;;;;16.34;53.21;102780.31;5047756;28;20017;-69
2023/04/17 05:10:33;;;;;;;40.33;19.27;;;;;;;16.61;52.68;102778.47;5045718;28;20033;-69
2023/04/17 05:12:58;;;;;;;37.70;19.00;;;;;;;16.43;52.56;102788.22;5052190;28;20154;-69
2023/04/17 05:15:24;;;;;;;36.40;19.20;;;;;;;15.58;55.08;102790.09;5036849;28;20476;-69
2023/04/17 05:17:50;;;;;;;34.07;18.80;;;;;;;16.10;53.73;102790.06;5028921;28;20022;-69
2023/04/17 05:20:15;;;;;;;34.80;19.53;;;;;;;15.84;54.85;102799.75;5028554;28;20024;-68
2023/04/17 05:22:41;;;;;;;33.57;18.70;;;;;;;16.70;52.28;102791.63;5043162;28;20089;-68
2023/04/17 05:25:07;;;;;;;38.50;19.40;;;;;;;16.69;52.12;102792.53;5061730;28;20507;-69
2023/04/17 05:27:32;;;;;;;34.17;18.90;;;;;;;16.53;52.56;102801.41;5048392;28;20025;-68
2023/04/17 05:29:58;;;;;;;36.20;18.60;;;;;;;16.52;53.27;102800.50;5033960;28;20024;-69
2023/04/17 05:32:23;;;;;;;31.97;19.33;;;;;;;17.29;51.34;102786.03;5037001;28;20927;-69
2023/04/17 05:34:48;;;;;;;31.77;18.30;;;;;;;16.61;50.95;102794.31;5068751;28;20507;-68
2023/04/17 05:37:14;;;;;;;35.53;18.80;;;;;;;15.72;54.81;102793.59;5038921;28;20484;-69
2023/04/17 05:39:39;;;;;;;33.03;19.80;;;;;;;15.72;54.83;102801.50;5033020;28;20064;-69
2023/04/17 05:42:04;;;;;;;37.47;19.10;;;;;;;15.88;54.58;102801.53;5032289;28;20021;-68
2023/04/17 05:44:31;;;;;;;36.67;18.93;;;;;;;16.02;54.61;102799.75;5065101;28;20029;-68
2023/04/17 05:46:58;;;;;;;35.63;18.60;;;;;;;16.02;53.26;102805.03;5045042;28;20021;-68
2023/04/17 05:49:27;;;;;;;37.50;20.20;;;;;;;16.56;53.78;102799.59;5050417;28;20106;-69
2023/04/17 05:51:52;;;;;;;31.70;18.40;;;;;;;17.45;50.04;102792.97;5041512;28;20630;-68
2023/04/17 05:54:17;;;;;;;33.73;19.17;;;;;;;16.29;54.12;102803.19;5061200;28;20037;-69
2023/04/17 05:56:43;;;;;;;31.77;18.97;;;;;;;16.04;54.68;102802.38;5046644;28;20017;-68
2023/04/17 05:59:08;;;;;;;36.10;19.23;;;;;;;16.62;52.99;102814.53;5046282;28;20395;-68
2023/04/17 06:01:34;;;;;;;34.37;19.40;;;;;;;16.99;51.61;102806.47;5049958;28;20029;-68
2023/04/17 06:04:00;;;;;;;36.53;19.57;;;;;;;18.15;49.12;102800.28;5047675;28;20025;-69
2023/04/17 06:06:26;;;;;;;37.40;18.97;;;;;;;17.00;51.29;102799.44;5039492;28;20033;-69
2023/04/17 06:08:53;;;;;;;36.50;19.03;;;;;;;16.77;52.97;102796.00;5047825;28;20420;-69
2023/04/17 06:11:18;;;;;;;34.43;20.00;;;;;;;15.94;55.04;102806.81;5029129;28;20025;-68
2023/04/17 06:13:44;;;;;;;37.80;19.23;;;;;;;16.52;53.45;102804.91;5029994;28;20572;-69
2023/04/17 06:16:09;;;;;;;37.37;16.77;;;;;;;15.88;53.51;102804.16;5036354;28;20028;-69
2023/04/17 06:18:34;;;;;;;38.70;20.43;;;;;;;16.95;53.09;102804.72;5050710;28;20032;-68
2023/04/17 06:21:00;;;;;;;32.67;18.80;;;;;;;16.43;53.00;102819.88;5049387;28;20075;-68
2023/04/17 06:23:25;;;;;;;32.10;19.07;;;;;;;16.07;55.52;102813.81;5040825;28;20027;-69
2023/04/17 06:25:51;;;;;;;33.23;18.27;;;;;;;16.32;55.30;102819.06;5038651;28;20124;-68
2023/04/17 06:28:16;;;;;;;33.13;19.03;;;;;;;15.32;56.56;102814.66;5034268;28;20368;-68
2023/04/17 06:30:42;;;;;;;33.63;18.63;;;;;;;16.12;53.86;102816.44;5049093;28;20029;-68
2023/04/17 06:33:07;;;;;;;34.63;17.83;;;;;;;15.62;56.30;102815.56;5043052;28;20465;-69
2023/04/17 06:35:33;;;;;;;31.70;18.33;;;;;;;16.82;52.65;102814.47;5049100;28;20036;-68
2023/04/17 06:37:59;;;;;;;32.37;17.57;;;;;;;17.50;50.50;102808.75;5045658;28;20468;-69
2023/04/17 06:40:24;;;;;;;34.57;19.77;;;;;;;16.99;52.44;102816.16;5048108;28;20048;-69
2023/04/17 06:42:50;;;;;;;32.83;18.13;;;;;;;17.28;51.16;102823.91;5050561;28;20361;-68
2023/04/17 06:45:15;;;;;;;32.93;18.67;;;;;;;16.95;52.07;102820.56;5062245;28;20109;-68
2023/04/17 06:47:41;;;;;;;33.00;19.00;;;;;;;18.41;48.62;102821.19;5049099;28;20031;-69
2023/04/17 06:50:07;;;;;;;37.23;17.87;;;;;;;17.24;50.73;102824.81;5048656;28;20017;-68
2023/04/17 06:52:33;;;;;;;33.53;18.83;;;;;;;17.23;51.68;102828.38;5043171;28;20479;-68
2023/04/17 06:54:58;;;;;;;39.30;18.97;;;;;;;17.21;51.88;102838.06;5039028;28;20067;-67
2023/04/17 06:57:24;;;;;;;35.13;18.63;;;;;;;16.41;53.48;102844.53;5059332;28;20036;-68
2023/04/17 06:59:49;;;;;;;37.23;19.50;;;;;;;17.33;51.12;102835.34;5069363;28;20016;-67
2023/04/17 07:02:15;;;;;;;35.40;18.90;;;;;;;16.45;53.74;102849.78;5068288;28;20022;-68
2023/04/17 07:04:40;;;;;;;35.90;18.67;;;;;;;17.20;51.16;102846.84;5070556;28;20105;-68
2023/04/17 07:07:06;;;;;;;36.17;19.17;;;;;;;16.78;52.37;102857.59;5050657;28;20561;-67
2023/04/17 07:09:31;;;;;;;32.93;20.13;;;;;;;16.07;55.22;102856.03;5045573;28;20025;-68
2023/04/17 07:11:57;;;;;;;35.50;18.87;;;;;;;15.70;56.80;102866.53;5048027;28;20366;-68
2023/04/17 07:14:22;;;;;;;38.40;19.93;;;;;;;17.38;51.95;102859.06;5050250;28;20024;-67
2023/04/17 07:16:48;;;;;;;35.23;18.43;;;;;;;16.53;53.58;102860.31;5047435;28;20440;-68
2023/04/17 07:19:13;;;;;;;37.13;19.30;;;;;;;15.50;56.67;102869.16;5041414;28;20439;-68
2023/04/17 07:21:38;;;;;;;36.37;19.27;;;;;;;16.96;54.27;102864.59;5027400;28;20029;-68
2023/04/17 07:24:04;;;;;;;33.00;19.37;;;;;;;16.62;54.72;102870.88;5052136;28;20028;-67
2023/04/17 07:26:30;;;;;;;35.13;20.23;;;;;;;16.75;54.26;102871.69;5065059;28;20032;-67
2023/04/17 07:28:56;;;;;;;37.00;20.53;;;;;;;17.05;52.83;102859.28;5063527;28;20027;-67
2023/04/17 07:31:21;;;;;;;36.43;20.50;;;;;;;18.14;50.33;102854.97;5037736;28;20032;-68
2023/04/17 07:33:46;;;;;;;38.37;20.83;;;;;;;17.42;50.71;102859.06;5053709;28;20033;-68
2023/04/17 07:36:12;;;;;;;38.73;21.07;;;;;;;18.27;49.15;102849.56;5043278;28;20554;-69
2023/04/17 07:38:37;;;;;;;38.00;20.90;;;;;;;18.35;49.12;102858.28;5048191;28;20431;-68
2023/04/17 07:41:03;;;;;;;42.43;21.40;;;;;;;17.98;49.33;102858.66;5043547;28;20033;-69
2023/04/17 07:43:29;;;;;;;39.40;20.10;;;;;;;18.05;49.41;102859.47;5048056;28;20032;-68
2023/04/17 07:45:54;;;;;;;38.63;19.97;;;;;;;18.25;48.43;102851.34;5055815;28;20377;-67
2023/04/17 07:48:21;;;;;;;38.63;20.03;;;;;;;17.56;50.40;102864.25;5045425;28;20020;-68
2023/04/17 07:50:50;;;;;;;41.73;20.50;;;;;;;17.30;51.68;102864.44;5046800;28;20029;-67
2023/04/17 07:53:17;;;;;;;38.40;21.43;;;;;;;18.00;50.48;102858.63;5051335;28;20385;-68
2023/04/17 07:55:42;;;;;;;36.43;20.50;;;;;;;16.52;53.36;102865.63;5066433;28;20024;-68
2023/04/17 07:58:10;;;;;;;42.43;21.23;;;;;;;15.67;55.92;102865.66;5057908;28;20040;-68
2023/04/17 08:00:37;;;;;;;42.00;21.00;;;;;;;15.89;56.83;102861.28;5061533;28;20371;-67
2023/04/17 08:03:02;;;;;;;38.67;21.07;;;;;;;16.48;54.64;102866.50;5045835;28;20040;-69
2023/04/17 08:05:28;;;;;;;38.13;21.20;;;;;;;17.54;52.52;102865.16;5047056;28;20024;-68
2023/04/17 08:07:53;;;;;;;41.20;21.30;;;;;;;16.05;56.07;102870.97;5048193;28;20021;-68
2023/04/17 08:10:19;;;;;;;44.43;22.13;;;;;;;17.58;51.95;102859.81;5046221;28;20021;-68
2023/04/17 08:12:44;;;;;;;39.47;21.07;;;;;;;16.45;53.47;102870.91;5028937;28;20036;-68
2023/04/17 08:15:10;;;;;;;38.07;20.73;;;;;;;16.66;53.96;102871.72;5038538;28;20028;-68
2023/04/17 08:17:36;;;;;;;40.67;21.17;;;;;;;17.01;53.12;102878.69;5040274;28;20056;-69
2023/04/17 08:20:09;;;;;;;39.30;20.93;;;;;;;17.16;52.63;102875.09;5042245;28;20090;-68
2023/04/17 08:22:43;;;;;;;38.50;21.40;;;;;;;17.12;51.89;102879.50;5028471;28;20041;-68
2023/04/17 08:25:09;;;;;;;41.00;21.43;;;;;;;17.93;50.38;102873.72;5047518;28;20547;-68
2023/04/17 08:27:36;;;;;;;36.57;20.73;;;;;;;17.11;52.00;102869.81;5050153;28;20020;-68
2023/04/17 08:30:06;;;;;;;39.57;21.17;;;;;;;17.15;53.78;102875.09;5048151;28;20021;-68
2023/04/17 08:32:40;;;;;;;40.50;21.67;;;;;;;18.16;50.49;102872.63;5046416;28;20018;-68
2023/04/17 08:35:07;;;;;;;39.07;21.47;;;;;;;17.94;51.02;102872.81;5024604;28;20067;-67
2023/04/17 08:37:34;;;;;;;40.40;21.23;;;;;;;18.06;50.53;102879.75;5044601;28;20491;-68
2023/04/17 08:40:00;;;;;;;41.77;21.97;;;;;;;17.77;50.88;102879.06;5045793;28;20104;-67
2023/04/17 08:42:28;;;;;;;44.10;22.27;;;;;;;17.61;50.64;102880.06;5047945;28;20108;-68
2023/04/17 08:44:58;;;;;;;37.20;21.20;;;;;;;17.31;51.20;102876.78;5046783;28;20033;-68
2023/04/17 08:47:24;;;;;;;39.80;22.50;;;;;;;16.57;52.66;102880.56;5047084;28;20607;-67
2023/04/17 08:49:49;;;;;;;37.53;21.50;;;;;;;18.21;49.77;102886.69;5059661;28;20037;-67
2023/04/17 08:52:15;;;;;;;38.57;21.03;;;;;;;18.51;48.85;102880.19;5026865;28;20048;-71
2023/04/17 08:54:41;;;;;;;38.30;20.67;;;;;;;18.18;48.72;102870.84;5048854;28;20522;-68
2023/04/17 08:57:06;;;;;;;41.10;20.93;;;;;;;17.90;48.96;102878.97;5048709;28;20036;-69
2023/04/17 08:59:32;;;;;;;41.00;21.07;;;;;;;17.37;50.94;102887.28;5050475;28;20033;-69
2023/04/17 09:02:03;;;;;;;40.40;20.90;;;;;;;17.29;51.82;102883.81;5047243;28;20037;-69
2023/04/17 09:04:42;;;;;;;39.53;20.60;;;;;;;17.83;50.97;102885.22;5041808;28;20064;-68
2023/04/17 09:07:10;;;;;;;38.23;21.77;;;;;;;17.35;51.24;102886.44;5031751;28;20070;-68
2023/04/17 09:09:50;;;;;;;39.17;20.80;;;;;;;17.21;51.88;102896.19;5031728;28;20018;-68
2023/04/17 09:12:19;;;;;;;39.40;21.27;;;;;;;18.05;49.57;102891.22;5032385;28;20029;-69
2023/04/17 09:14:44;;;;;;;36.90;20.27;;;;;;;17.77;49.91;102887.00;5030274;28;20060;-68
2023/04/17 09:17:10;;;;;;;37.90;20.43;;;;;;;18.79;47.57;102888.72;5047026;28;20052;-68
2023/04/17 09:19:35;;;;;;;35.83;19.73;;;;;;;18.80;47.13;102889.59;5049213;28;20025;-68
2023/04/17 09:22:20;;;;;;;36.40;19.60;;;;;;;18.10;47.95;102890.28;5051262;28;20427;-68
2023/04/17 09:24:47;;;;;;;36.27;19.57;;;;;;;18.16;48.59;102893.78;5045319;28;20448;-68
2023/04/17 09:27:28;;;;;;;38.97;21.13;;;;;;;18.14;49.25;102901.75;5032199;28;20393;-68
2023/04/17 09:30:05;;;;;;;44.27;20.03;;;;;;;18.12;48.51;102904.41;5032152;28;20542;-69
2023/04/17 09:32:31;;;;;;;37.37;19.27;;;;;;;17.73;50.56;102906.44;5059399;28;20056;-68
2023/04/17 09:35:00;;;;;;;37.23;20.53;;;;;;;17.35;50.95;102897.00;5031442;28;20025;-69
2023/04/17 09:37:46;;;;;;;36.30;19.43;;;;;;;18.78;47.36;102894.91;5029930;28;20124;-68
2023/04/17 09:40:11;;;;;;;35.37;18.97;;;;;;;18.54;48.08;102895.19;5040880;28;20473;-68
2023/04/17 09:42:55;;;;;;;30.53;17.90;;;;;;;19.08;46.70;102895.47;5038579;28;20069;-68
2023/04/17 09:45:23;;;;;;;35.53;20.03;;;;;;;18.44;47.17;102889.97;5032051;28;20021;-68
2023/04/17 09:47:49;;;;;;;31.63;19.93;;;;;;;18.25;48.22;102893.72;5041356;28;20412;-68
2023/04/17 09:50:20;;;;;;;34.15;18.38;;;;;;;19.32;45.29;102893.34;5037374;28;20466;-68
2023/04/17 09:52:49;;;;;;;35.83;18.08;;;;;;;19.23;45.02;102896.13;5037020;28;20112;-68
2023/04/17 09:55:20;;;;;;;38.47;18.25;;;;;;;19.10;45.40;102906.91;5035717;28;20044;-68
2023/04/17 09:57:47;;;;;;;29.85;17.65;;;;;;;21.01;42.10;102897.50;5035842;28;20056;-68
2023/04/17 10:00:14;;;;;;;33.65;18.88;;;;;;;21.05;42.50;102902.75;5047872;28;20036;-69
2023/04/17 10:02:41;;;;;;;32.55;19.13;;;;;;;19.86;44.25;102902.31;5061655;28;20062;-68
2023/04/17 10:05:09;;;;;;;31.92;17.73;;;;;;;18.80;45.41;102914.28;5050337;28;20388;-69
2023/04/17 10:07:38;;;;;;;30.20;17.20;;;;;;;17.96;46.76;102913.38;5049861;28;20036;-69
2023/04/17 10:10:08;;;;;;;31.50;18.25;;;;;;;19.71;44.09;102906.03;5048944;28;20650;-68
2023/04/17 10:12:37;;;;;;;31.00;17.60;;;;;;;21.31;41.66;102899.53;5056122;28;20025;-68
2023/04/17 10:15:08;;;;;;;26.58;17.42;;;;;;;23.01;39.00;102900.47;5047746;28;20066;-68
2023/04/17 10:17:34;;;;;;;26.15;15.60;;;;;;;22.75;37.80;102903.91;5045686;28;20185;-68
2023/04/17 10:20:16;;;;;;;25.00;15.98;;;;;;;23.65;36.35;102897.59;5051367;28;20153;-69
2023/04/17 10:22:42;;;;;;;27.33;14.70;;;;;;;22.81;37.34;102896.59;5048350;28;20041;-69
2023/04/17 10:25:10;;;;;;;23.92;14.80;;;;;;;23.41;36.10;102899.28;5046141;28;20032;-68
2023/04/17 10:27:36;;;;;;;27.88;16.10;;;;;;;23.75;36.08;102898.16;5049945;28;20473;-68
2023/04/17 10:30:04;;;;;;;26.45;14.75;;;;;;;25.48;32.79;102881.19;5049474;28;20036;-69
2023/04/17 10:32:31;;;;;;;23.77;14.43;;;;;;;24.89;33.84;102896.88;5050274;28;20029;-69
2023/04/17 10:34:59;;;;;;;19.60;13.32;;;;;;;24.64;34.08;102899.59;5042501;28;20111;-68
2023/04/17 10:37:47;;;;;;;22.27;14.98;;;;;;;25.11;32.82;102897.84;5029358;28;20401;-69
2023/04/17 10:40:23;;;;;;;21.42;14.45;;;;;;;24.58;33.96;102898.91;5043800;28;20398;-69
2023/04/17 10:43:16;;;;;;;20.33;13.82;;;;;;;24.66;33.47;102902.19;5035705;28;20039;-68
2023/04/17 10:45:59;;;;;;;20.17;13.52;;;;;;;22.73;35.03;102901.28;5050118;28;20404;-69
2023/04/17 10:48:36;;;;;;;20.75;13.98;;;;;;;22.68;36.51;102898.75;5054632;28;20032;-69
2023/04/17 10:51:22;;;;;;;22.38;14.65;;;;;;;22.53;35.94;102905.41;5031166;28;20049;-69
2023/04/17 10:53:58;;;;;;;26.13;14.57;;;;;;;23.26;35.76;102894.41;5033169;28;20035;-68
2023/04/17 10:56:25;;;;;;;21.80;13.95;;;;;;;23.88;34.43;102894.22;5048644;28;20416;-67
2023/04/17 10:58:57;;;;;;;18.92;13.25;;;;;;;24.39;33.86;102896.91;5034637;28;20065;-69
2023/04/17 11:01:43;;;;;;;20.77;13.25;;;;;;;23.86;33.62;102896.03;5049080;28;20037;-69
2023/04/17 11:04:10;;;;;;;21.17;12.75;;;;;;;25.12;31.96;102889.75;5040099;28;20076;-69
2023/04/17 11:06:38;;;;;;;19.48;12.52;;;;;;;22.78;35.86;102894.03;5047606;28;20025;-69
2023/04/17 11:09:07;;;;;;;22.33;13.10;;;;;;;25.52;32.39;102880.13;5048398;28;20056;-69